KCDH

Details ICAO KCDH
Name HARRELL FLD
Region United States
Timezone America/Chicago (UTC-6.0)
Plans Departing 6
Arriving 4
Stats Elevation 130 ft / 40 m (AMSL)
Location 33.622799° -92.763396°
Runways 1
Magnetic Variation 0.677° E
Sunrise 2017-12-16 13:10:20 UTC / 2017-12-16 07:10:20 Local
Sunset 2017-12-16 23:06:03 UTC / 2017-12-16 17:06:03 Local
Advertisement - Login to hide

Runways

ID Width Length Bearing (true) Bearing (mag) Surface Threshold Offset Overrun Length
18 100 ft / 30 m 6,518 ft / 1,987 m 189.02° 188.34° Asphalt 0 ft / 0 m 0 ft / 0 m
36 100 ft / 30 m 6,518 ft / 1,987 m 9.02° 8.34° Asphalt 0 ft / 0 m 0 ft / 0 m

Map

Weather


0- 5 10 15 20 25 30 35+ Temperature / ° C

Clouds and Precipitation
Forecast for 2017-12-16 18:00 UTC. Updated an hour ago

Ground ~20,000 ft ~40,000 ft Winds

METAR

KCDH 161435Z AUTO 00000KT 10SM CLR 02/M01 A3024 RMK AO2

TAF

Not found

Frequencies

Recorded 125.20 MHz AWOS
Unicom 122.70 MHz CTAF/UNICOM
Warning: Do not use this data for real-world aviation or navigation. No guarantee of current accuracy is given.